createdAt,value
2022-11-15T00:01:29.741Z,8.80
2022-11-15T00:03:58.173Z,8.80
2022-11-15T00:06:26.870Z,8.70
2022-11-15T00:08:55.226Z,8.80
2022-11-15T00:11:24.017Z,8.70
2022-11-15T00:13:56.736Z,8.80
2022-11-15T00:16:26.283Z,8.70
2022-11-15T00:18:54.667Z,8.70
2022-11-15T00:21:23.357Z,8.70
2022-11-15T00:23:51.870Z,8.70
2022-11-15T00:26:20.739Z,8.70
2022-11-15T00:28:49.047Z,8.70
2022-11-15T00:31:19.041Z,8.70
2022-11-15T00:33:47.695Z,8.70
2022-11-15T00:36:16.385Z,8.60
2022-11-15T00:38:44.891Z,8.60
2022-11-15T00:41:13.538Z,8.60
2022-11-15T00:43:44.814Z,8.60
2022-11-15T00:46:13.871Z,8.50
2022-11-15T00:48:43.692Z,8.50
2022-11-15T00:51:12.286Z,8.50
2022-11-15T00:53:40.567Z,8.60
2022-11-15T00:56:09.368Z,8.50
2022-11-15T00:58:37.918Z,8.60
2022-11-15T01:01:11.390Z,8.60
2022-11-15T01:03:41.251Z,8.60
2022-11-15T01:06:12.806Z,8.60
2022-11-15T01:08:41.502Z,8.60
2022-11-15T01:11:12.428Z,8.60
2022-11-15T01:13:41.837Z,8.60
2022-11-15T01:16:12.784Z,8.60
2022-11-15T01:18:42.254Z,8.60
2022-11-15T01:21:14.446Z,8.60
2022-11-15T01:23:43.195Z,8.60
2022-11-15T01:26:15.226Z,8.60
2022-11-15T01:28:44.504Z,8.60
2022-11-15T01:31:16.312Z,8.50
2022-11-15T01:33:45.280Z,8.50
2022-11-15T01:36:17.647Z,8.50
2022-11-15T01:38:46.618Z,8.50
2022-11-15T01:41:20.648Z,8.50
2022-11-15T01:43:51.881Z,8.40
2022-11-15T01:46:28.388Z,8.40
2022-11-15T01:48:59.870Z,8.40
2022-11-15T01:51:34.031Z,8.40
2022-11-15T01:54:07.760Z,8.30
2022-11-15T01:56:45.068Z,8.40
2022-11-15T01:59:14.148Z,8.40
2022-11-15T02:01:43.990Z,8.40
2022-11-15T02:04:15.812Z,8.40
2022-11-15T02:06:47.757Z,8.50
2022-11-15T02:09:17.137Z,8.40
2022-11-15T02:11:47.315Z,8.50
2022-11-15T02:14:17.955Z,8.50
2022-11-15T02:16:57.882Z,8.50
2022-11-15T02:19:45.815Z,8.50
2022-11-15T02:22:29.683Z,8.50
2022-11-15T02:25:16.491Z,8.50
2022-11-15T02:28:09.213Z,8.50
2022-11-15T02:30:44.863Z,8.50
2022-11-15T02:33:24.088Z,8.50
2022-11-15T02:35:59.645Z,8.50
2022-11-15T02:38:34.995Z,8.50
2022-11-15T02:41:06.832Z,8.50
2022-11-15T02:43:58.448Z,8.50
2022-11-15T02:46:48.769Z,8.50
2022-11-15T02:49:17.945Z,8.40
2022-11-15T02:51:50.139Z,8.40
2022-11-15T02:54:23.920Z,8.40
2022-11-15T02:56:55.294Z,8.40
2022-11-15T02:59:46.198Z,8.40
2022-11-15T03:02:27.072Z,8.40
2022-11-15T03:04:58.238Z,8.40
2022-11-15T03:07:32.074Z,8.40
2022-11-15T03:10:08.810Z,8.40
2022-11-15T03:12:43.721Z,8.40
2022-11-15T03:15:17.995Z,8.40
2022-11-15T03:17:55.229Z,8.40
2022-11-15T03:20:24.671Z,8.30
2022-11-15T03:22:53.742Z,8.30
2022-11-15T03:25:27.142Z,8.30
2022-11-15T03:27:59.496Z,8.30
2022-11-15T03:30:29.220Z,8.30
2022-11-15T03:33:01.021Z,8.30
2022-11-15T03:35:34.211Z,8.30
2022-11-15T03:38:09.828Z,8.30
2022-11-15T03:40:41.868Z,8.30
2022-11-15T03:43:17.472Z,8.30
2022-11-15T03:45:50.132Z,8.30
2022-11-15T03:48:25.100Z,8.30
2022-11-15T03:50:54.347Z,8.30
2022-11-15T03:53:22.849Z,8.30
2022-11-15T03:55:51.697Z,8.30
2022-11-15T03:58:20.415Z,8.20
2022-11-15T04:00:49.297Z,8.30
2022-11-15T04:03:19.613Z,8.30
2022-11-15T04:05:48.298Z,8.20
2022-11-15T04:08:16.815Z,8.20
2022-11-15T04:10:45.633Z,8.20
2022-11-15T04:13:14.045Z,8.20
2022-11-15T04:15:42.834Z,8.20
2022-11-15T04:18:11.317Z,8.20
2022-11-15T04:20:59.149Z,8.20
2022-11-15T04:23:45.401Z,8.20
2022-11-15T04:26:17.818Z,8.20
2022-11-15T04:29:00.286Z,8.20
2022-11-15T04:31:29.992Z,8.20
2022-11-15T04:33:59.300Z,8.20
2022-11-15T04:36:46.773Z,8.20
2022-11-15T04:39:15.098Z,8.20
2022-11-15T04:41:43.846Z,8.20
2022-11-15T04:44:12.460Z,8.20
2022-11-15T04:46:41.170Z,8.20
2022-11-15T04:49:09.635Z,8.20
2022-11-15T04:51:40.106Z,8.20
2022-11-15T04:54:09.125Z,8.20
2022-11-15T04:56:38.417Z,8.20
2022-11-15T04:59:06.887Z,8.30
2022-11-15T05:01:37.600Z,8.20
2022-11-15T05:04:20.553Z,8.30
2022-11-15T05:06:53.893Z,8.30
2022-11-15T05:09:22.985Z,8.20
2022-11-15T05:11:51.835Z,8.30
2022-11-15T05:14:20.116Z,8.20
2022-11-15T05:16:48.933Z,8.20
2022-11-15T05:19:17.822Z,8.20
2022-11-15T05:21:46.985Z,8.20
2022-11-15T05:24:16.897Z,8.30
2022-11-15T05:26:45.711Z,8.30
2022-11-15T05:29:14.082Z,8.50
2022-11-15T05:31:44.183Z,8.20
2022-11-15T05:34:12.843Z,8.20
2022-11-15T05:36:45.758Z,8.20
2022-11-15T05:39:14.138Z,8.30
2022-11-15T05:41:48.759Z,8.20
2022-11-15T05:44:19.907Z,8.20
2022-11-15T05:46:49.257Z,8.20
2022-11-15T05:49:21.288Z,8.20
2022-11-15T05:51:51.531Z,8.30
2022-11-15T05:54:21.882Z,8.30
2022-11-15T05:56:52.143Z,8.30
2022-11-15T05:59:22.054Z,8.30
2022-11-15T06:01:51.230Z,8.30
2022-11-15T06:04:19.544Z,8.30
2022-11-15T06:06:48.069Z,8.30
2022-11-15T06:09:16.335Z,8.20
2022-11-15T06:11:44.920Z,8.50
2022-11-15T06:14:14.911Z,8.30
2022-11-15T06:16:43.836Z,8.20
2022-11-15T06:19:12.314Z,8.30
2022-11-15T06:21:41.075Z,8.30
2022-11-15T06:24:10.701Z,8.30
2022-11-15T06:26:39.580Z,8.30
2022-11-15T06:29:08.017Z,8.30
2022-11-15T06:31:38.959Z,8.30
2022-11-15T06:34:07.230Z,8.30
2022-11-15T06:36:36.857Z,8.30
2022-11-15T06:39:05.837Z,8.30
2022-11-15T06:41:36.859Z,8.30
2022-11-15T06:44:05.715Z,8.40
2022-11-15T06:46:34.391Z,8.40
2022-11-15T06:49:09.424Z,8.40
2022-11-15T06:51:38.646Z,8.40
2022-11-15T06:54:07.334Z,8.40
2022-11-15T06:56:36.377Z,8.40
2022-11-15T06:59:04.986Z,8.40
2022-11-15T07:01:34.418Z,8.50
2022-11-15T07:04:04.600Z,8.50
2022-11-15T07:06:33.509Z,8.50
2022-11-15T07:09:01.995Z,8.50
2022-11-15T07:11:30.757Z,8.50
2022-11-15T07:14:01.128Z,8.50
2022-11-15T07:16:30.048Z,8.50
2022-11-15T07:18:59.068Z,8.50
2022-11-15T07:21:29.174Z,8.50
2022-11-15T07:23:57.655Z,8.50
2022-11-15T07:26:26.389Z,8.50
2022-11-15T07:28:55.598Z,8.50
2022-11-15T07:31:24.567Z,8.50
2022-11-15T07:33:52.823Z,8.50
2022-11-15T07:36:21.498Z,8.50
2022-11-15T07:38:51.229Z,8.50
2022-11-15T07:41:19.816Z,8.50
2022-11-15T07:43:48.275Z,8.50
2022-11-15T07:46:17.015Z,8.60
2022-11-15T07:48:45.876Z,8.60
2022-11-15T07:51:15.873Z,8.60
2022-11-15T07:53:44.643Z,8.60
2022-11-15T07:56:14.917Z,8.60
2022-11-15T07:58:43.514Z,8.70
2022-11-15T08:01:13.579Z,8.70
2022-11-15T08:03:42.211Z,8.70
2022-11-15T08:06:11.188Z,8.70
2022-11-15T08:08:39.462Z,8.70
2022-11-15T08:11:08.059Z,8.70
2022-11-15T08:13:38.071Z,8.80
2022-11-15T08:16:07.319Z,8.80
2022-11-15T08:18:35.775Z,8.80
2022-11-15T08:21:04.841Z,8.80
2022-11-15T08:23:33.653Z,8.90
2022-11-15T08:26:04.155Z,8.90
2022-11-15T08:28:33.340Z,8.90
2022-11-15T08:31:04.765Z,8.90
2022-11-15T08:33:34.484Z,8.90
2022-11-15T08:36:03.854Z,8.90
2022-11-15T08:38:32.636Z,9.00
2022-11-15T08:41:07.085Z,9.00
2022-11-15T08:43:35.599Z,9.00
2022-11-15T08:46:06.091Z,9.00
2022-11-15T08:48:34.626Z,9.00
2022-11-15T08:51:03.538Z,9.10
2022-11-15T08:53:32.006Z,9.10
2022-11-15T08:56:00.615Z,9.10
2022-11-15T08:58:29.097Z,9.10
2022-11-15T09:00:57.967Z,9.20
2022-11-15T09:03:27.716Z,9.20
2022-11-15T09:05:58.076Z,9.20
2022-11-15T09:11:17.452Z,9.20
2022-11-15T09:13:45.823Z,9.20
2022-11-15T09:16:16.330Z,9.20
2022-11-15T09:18:46.530Z,9.20
2022-11-15T09:21:15.778Z,9.20
2022-11-15T09:23:44.354Z,9.20
2022-11-15T09:26:12.938Z,9.10
2022-11-15T09:28:42.881Z,9.10
2022-11-15T09:31:11.808Z,9.00
2022-11-15T09:33:40.118Z,9.00
2022-11-15T09:36:11.374Z,8.90
2022-11-15T09:38:39.920Z,8.90
2022-11-15T09:41:25.083Z,8.90
2022-11-15T09:44:02.955Z,8.90
2022-11-15T09:46:39.938Z,9.10
2022-11-15T09:49:11.754Z,9.10
2022-11-15T09:51:47.787Z,9.20
2022-11-15T09:57:20.622Z,9.30
2022-11-15T10:03:14.321Z,9.20
2022-11-15T10:05:45.167Z,9.20
2022-11-15T10:08:28.074Z,9.20
2022-11-15T10:11:30.432Z,9.20
2022-11-15T10:13:50.950Z,9.30
2022-11-15T10:17:06.698Z,9.30
2022-11-15T10:19:41.685Z,9.30
2022-11-15T10:22:24.431Z,9.40
2022-11-15T10:25:18.599Z,9.50
2022-11-15T10:27:52.330Z,9.50
2022-11-15T10:30:22.141Z,9.60
2022-11-15T10:32:51.500Z,9.60
2022-11-15T10:35:26.727Z,9.70
2022-11-15T10:38:07.486Z,9.70
2022-11-15T10:40:38.206Z,9.80
2022-11-15T10:43:15.323Z,9.70
2022-11-15T10:45:44.469Z,9.80
2022-11-15T10:48:28.572Z,9.80
2022-11-15T10:50:57.967Z,9.80
2022-11-15T10:53:33.821Z,9.80
2022-11-15T10:56:09.193Z,9.70
2022-11-15T10:58:41.488Z,9.70
2022-11-15T11:01:17.331Z,9.60
2022-11-15T11:03:47.378Z,9.60
2022-11-15T11:06:18.210Z,9.60
2022-11-15T11:08:57.975Z,9.40
2022-11-15T11:11:46.265Z,9.40
2022-11-15T11:14:22.711Z,9.40
2022-11-15T11:16:55.069Z,9.40
2022-11-15T11:19:51.959Z,9.50
2022-11-15T11:22:28.168Z,9.50
2022-11-15T11:25:07.239Z,9.50
2022-11-15T11:27:49.734Z,9.60
2022-11-15T11:30:22.390Z,9.70
2022-11-15T11:33:00.612Z,9.70
2022-11-15T11:35:34.855Z,9.60
2022-11-15T11:38:20.021Z,9.70
2022-11-15T11:41:02.841Z,9.60
2022-11-15T11:43:43.594Z,9.60
2022-11-15T11:46:25.184Z,9.60
2022-11-15T11:48:59.419Z,9.60
2022-11-15T11:51:35.050Z,9.60
2022-11-15T11:54:13.362Z,9.70
2022-11-15T11:56:43.883Z,9.70
2022-11-15T11:59:21.094Z,9.70
2022-11-15T12:01:49.652Z,9.70
2022-11-15T12:04:23.239Z,9.70
2022-11-15T12:06:55.687Z,9.70
2022-11-15T12:09:30.807Z,9.60
2022-11-15T12:12:07.974Z,9.50
2022-11-15T12:14:44.228Z,9.50
2022-11-15T12:17:15.654Z,9.40
2022-11-15T12:19:44.959Z,9.40
2022-11-15T12:22:22.168Z,9.40
2022-11-15T12:24:57.231Z,9.30
2022-11-15T12:27:33.706Z,9.40
2022-11-15T12:30:11.514Z,9.40
2022-11-15T12:32:42.110Z,9.50
2022-11-15T12:35:27.862Z,9.50
2022-11-15T12:37:57.487Z,9.50
2022-11-15T12:40:28.648Z,9.60
2022-11-15T12:43:04.173Z,9.60
2022-11-15T12:45:37.779Z,9.60
2022-11-15T12:48:49.464Z,9.60
2022-11-15T12:51:19.271Z,9.60
2022-11-15T12:53:47.643Z,9.50
2022-11-15T12:56:25.972Z,9.50
2022-11-15T12:58:57.762Z,9.50
2022-11-15T13:02:02.468Z,9.50
2022-11-15T13:04:33.051Z,9.50
2022-11-15T13:07:04.252Z,9.50
2022-11-15T13:10:00.354Z,9.50
2022-11-15T13:12:58.381Z,9.50
2022-11-15T13:15:42.845Z,9.50
2022-11-15T13:18:36.755Z,9.50
2022-11-15T13:21:28.550Z,9.50
2022-11-15T13:23:57.788Z,9.50
2022-11-15T13:26:26.420Z,9.50
2022-11-15T13:28:56.951Z,9.40
2022-11-15T13:31:32.494Z,9.40
2022-11-15T13:34:17.902Z,9.30
2022-11-15T13:36:54.553Z,9.30
2022-11-15T13:39:30.370Z,9.20
2022-11-15T13:41:59.023Z,9.10
2022-11-15T13:44:29.685Z,9.10
2022-11-15T13:47:06.791Z,9.00
2022-11-15T13:49:38.867Z,9.00
2022-11-15T13:52:10.084Z,8.90
2022-11-15T13:54:45.368Z,8.80
2022-11-15T13:57:17.882Z,8.90
2022-11-15T13:59:49.521Z,8.80
2022-11-15T14:02:20.497Z,8.80
2022-11-15T14:04:53.344Z,8.80
2022-11-15T14:07:23.612Z,8.70
2022-11-15T14:09:52.805Z,8.60
2022-11-15T14:12:31.420Z,8.70
2022-11-15T14:15:00.996Z,8.60
2022-11-15T14:17:38.584Z,8.70
2022-11-15T14:23:02.677Z,8.70
2022-11-15T14:25:32.031Z,8.70
2022-11-15T14:28:30.270Z,8.70
2022-11-15T14:31:00.650Z,8.70
2022-11-15T14:33:31.857Z,8.70
2022-11-15T14:36:04.989Z,8.70
2022-11-15T14:38:36.047Z,8.70
2022-11-15T14:41:05.640Z,8.60
2022-11-15T14:43:34.425Z,8.60
2022-11-15T14:46:03.200Z,8.60
2022-11-15T14:48:31.963Z,8.60
2022-11-15T14:51:00.817Z,8.50
2022-11-15T14:53:29.152Z,8.60
2022-11-15T14:55:59.104Z,8.50
2022-11-15T14:58:27.967Z,8.50
2022-11-15T15:00:56.510Z,8.50
2022-11-15T15:03:24.888Z,8.50
2022-11-15T15:05:53.729Z,8.50
2022-11-15T15:08:21.993Z,8.40
2022-11-15T15:10:50.825Z,8.40
2022-11-15T15:13:22.544Z,8.30
2022-11-15T15:15:52.431Z,8.30
2022-11-15T15:18:21.506Z,8.20
2022-11-15T15:20:57.448Z,8.20
2022-11-15T15:23:27.979Z,8.20
2022-11-15T15:25:56.584Z,8.20
2022-11-15T15:28:31.271Z,8.20
2022-11-15T15:31:02.906Z,8.20
2022-11-15T15:33:31.372Z,8.20
2022-11-15T15:36:00.264Z,8.10
2022-11-15T15:38:29.367Z,8.10
2022-11-15T15:40:58.311Z,8.10
2022-11-15T15:43:28.138Z,8.10
2022-11-15T15:45:57.123Z,8.20
2022-11-15T15:48:25.410Z,8.10
2022-11-15T15:50:54.118Z,8.10
2022-11-15T15:53:22.528Z,8.10
2022-11-15T15:55:51.100Z,8.10
2022-11-15T15:58:19.381Z,8.00
2022-11-15T16:00:49.325Z,8.00
2022-11-15T16:03:17.626Z,8.00
2022-11-15T16:05:46.378Z,8.00
2022-11-15T16:08:20.667Z,8.00
2022-11-15T16:10:49.818Z,8.00
2022-11-15T16:13:18.545Z,8.00
2022-11-15T16:15:50.981Z,8.10
2022-11-15T16:18:19.907Z,8.00
2022-11-15T16:20:50.977Z,8.00
2022-11-15T16:23:21.120Z,8.00
2022-11-15T16:25:51.471Z,7.90
2022-11-15T16:28:22.275Z,8.00
2022-11-15T16:31:02.125Z,8.00
2022-11-15T16:33:32.956Z,8.00
2022-11-15T16:36:01.886Z,8.00
2022-11-15T16:38:30.607Z,8.00
2022-11-15T16:40:59.703Z,8.00
2022-11-15T16:43:28.172Z,7.90
2022-11-15T16:45:58.366Z,7.90
2022-11-15T16:48:27.635Z,7.90
2022-11-15T16:50:58.187Z,7.90
2022-11-15T16:53:26.696Z,7.90
2022-11-15T16:55:56.796Z,7.90
2022-11-15T16:58:25.587Z,7.90
2022-11-15T17:00:55.820Z,7.90
2022-11-15T17:03:26.504Z,8.00
2022-11-15T17:05:59.134Z,7.90
2022-11-15T17:08:28.721Z,7.90
2022-11-15T17:10:57.396Z,8.00
2022-11-15T17:13:25.703Z,8.00
2022-11-15T17:16:05.384Z,7.90
2022-11-15T17:18:35.690Z,8.00
2022-11-15T17:21:09.043Z,7.80
2022-11-15T17:23:37.348Z,8.00
2022-11-15T17:26:28.391Z,8.00
2022-11-15T17:28:57.186Z,8.00
2022-11-15T17:31:26.818Z,8.00
2022-11-15T17:33:56.439Z,8.00
2022-11-15T17:36:24.927Z,8.00
2022-11-15T17:38:59.057Z,8.10
2022-11-15T17:41:29.503Z,8.00
2022-11-15T17:43:59.951Z,8.00
2022-11-15T17:46:30.192Z,8.10
2022-11-15T17:49:00.042Z,8.00
2022-11-15T17:51:28.843Z,8.00
2022-11-15T17:53:57.794Z,8.00
2022-11-15T17:56:28.194Z,8.00
2022-11-15T17:58:58.445Z,7.90
2022-11-15T18:01:29.354Z,8.00
2022-11-15T18:04:02.065Z,8.00
2022-11-15T18:06:33.702Z,8.00
2022-11-15T18:09:03.392Z,8.00
2022-11-15T18:11:34.677Z,8.00
2022-11-15T18:14:05.144Z,8.00
2022-11-15T18:16:36.990Z,8.00
2022-11-15T18:19:11.376Z,8.00
2022-11-15T18:21:56.702Z,8.00
2022-11-15T18:24:27.216Z,8.00
2022-11-15T18:26:56.509Z,7.90
2022-11-15T18:29:25.866Z,7.90
2022-11-15T18:31:56.253Z,7.90
2022-11-15T18:34:40.162Z,7.90
2022-11-15T18:37:10.279Z,7.90
2022-11-15T18:39:38.865Z,7.90
2022-11-15T18:42:07.610Z,7.90
2022-11-15T18:44:36.346Z,8.00
2022-11-15T18:47:05.179Z,8.00
2022-11-15T18:49:35.053Z,7.90
2022-11-15T18:52:03.943Z,8.00
2022-11-15T18:54:32.297Z,7.90
2022-11-15T18:57:01.808Z,8.00
2022-11-15T18:59:31.030Z,7.90
2022-11-15T19:02:00.322Z,7.90
2022-11-15T19:04:28.882Z,7.90
2022-11-15T19:06:59.123Z,8.00
2022-11-15T19:09:32.965Z,7.90
2022-11-15T19:12:02.176Z,7.90
2022-11-15T19:14:30.955Z,7.90
2022-11-15T19:16:59.546Z,7.80
2022-11-15T19:19:29.355Z,7.80
2022-11-15T19:22:00.153Z,7.90
2022-11-15T19:24:29.976Z,7.80
2022-11-15T19:26:58.982Z,7.80
2022-11-15T19:29:27.442Z,7.80
2022-11-15T19:31:56.176Z,7.80
2022-11-15T19:34:24.505Z,7.80
2022-11-15T19:36:53.316Z,7.80
2022-11-15T19:39:22.992Z,7.80
2022-11-15T19:41:51.873Z,7.70
2022-11-15T19:44:20.417Z,7.70
2022-11-15T19:46:49.404Z,7.70
2022-11-15T19:49:17.748Z,7.60
2022-11-15T19:51:48.489Z,7.60
2022-11-15T19:54:17.676Z,7.60
2022-11-15T19:56:47.951Z,7.70
2022-11-15T19:59:17.396Z,7.70
2022-11-15T20:01:46.119Z,7.70
2022-11-15T20:04:14.477Z,7.60
2022-11-15T20:06:44.344Z,7.60
2022-11-15T20:09:15.029Z,7.80
2022-11-15T20:11:44.028Z,7.60
2022-11-15T20:14:14.050Z,7.60
2022-11-15T20:16:43.126Z,7.60
2022-11-15T20:19:12.617Z,7.70
2022-11-15T20:21:41.517Z,7.80
2022-11-15T20:24:10.531Z,7.80
2022-11-15T20:26:39.500Z,7.90
2022-11-15T20:29:10.001Z,7.90
2022-11-15T20:31:43.070Z,8.00
2022-11-15T20:34:11.627Z,8.00
2022-11-15T20:36:40.469Z,8.00
2022-11-15T20:39:08.783Z,8.10
2022-11-15T20:41:37.392Z,8.10
2022-11-15T20:44:06.175Z,8.20
2022-11-15T20:46:35.860Z,8.20
2022-11-15T20:49:06.584Z,8.20
2022-11-15T20:51:36.596Z,8.20
2022-11-15T20:54:06.456Z,8.20
2022-11-15T20:56:35.610Z,8.20
2022-11-15T20:59:04.010Z,8.10
2022-11-15T21:01:32.872Z,8.10
2022-11-15T21:04:01.757Z,8.00
2022-11-15T21:06:32.007Z,8.00
2022-11-15T21:09:18.246Z,8.10
2022-11-15T21:12:04.504Z,8.10
2022-11-15T21:14:33.592Z,8.10
2022-11-15T21:17:02.421Z,8.10
2022-11-15T21:19:35.627Z,8.10
2022-11-15T21:22:17.576Z,8.10
2022-11-15T21:24:46.677Z,8.10
2022-11-15T21:27:15.456Z,8.10
2022-11-15T21:29:45.778Z,8.10
2022-11-15T21:32:14.455Z,8.10
2022-11-15T21:34:44.833Z,8.00
2022-11-15T21:37:13.789Z,8.00
2022-11-15T21:39:43.470Z,8.00
2022-11-15T21:42:12.051Z,7.90
2022-11-15T21:44:40.327Z,7.90
2022-11-15T21:47:09.062Z,8.10
2022-11-15T21:49:37.873Z,7.90
2022-11-15T21:52:06.898Z,7.90
2022-11-15T21:54:35.145Z,7.90
2022-11-15T21:57:05.262Z,7.90
2022-11-15T21:59:33.553Z,7.90
2022-11-15T22:02:16.370Z,7.90
2022-11-15T22:05:55.323Z,7.90
2022-11-15T22:08:25.024Z,7.90
2022-11-15T22:10:54.279Z,7.90
2022-11-15T22:13:25.888Z,7.90
2022-11-15T22:15:55.226Z,7.90
2022-11-15T22:18:26.746Z,7.90
2022-11-15T22:20:56.835Z,7.90
2022-11-15T22:23:26.604Z,7.90
2022-11-15T22:25:55.693Z,7.90
2022-11-15T22:28:26.676Z,7.90
2022-11-15T22:30:56.674Z,7.90
2022-11-15T22:33:27.395Z,7.90
2022-11-15T22:35:56.612Z,7.90
2022-11-15T22:38:26.478Z,7.90
2022-11-15T22:40:55.328Z,7.90
2022-11-15T22:43:27.365Z,7.90
2022-11-15T22:45:57.009Z,7.90
2022-11-15T22:48:28.619Z,7.90
2022-11-15T22:50:58.197Z,7.90
2022-11-15T22:53:28.736Z,7.90
2022-11-15T22:55:59.418Z,7.90
2022-11-15T22:58:32.426Z,8.00
2022-11-15T23:01:03.757Z,8.00
2022-11-15T23:03:33.657Z,8.00
2022-11-15T23:06:07.335Z,8.00
2022-11-15T23:08:37.090Z,7.90
2022-11-15T23:11:24.037Z,7.90
2022-11-15T23:13:54.771Z,8.00
2022-11-15T23:16:26.020Z,8.00
2022-11-15T23:18:59.450Z,8.00
2022-11-15T23:21:47.992Z,8.00
2022-11-15T23:24:18.295Z,8.00
2022-11-15T23:26:49.564Z,8.00
2022-11-15T23:29:21.818Z,8.00
2022-11-15T23:32:08.546Z,8.00
2022-11-15T23:34:40.298Z,8.10
2022-11-15T23:37:11.850Z,8.10
2022-11-15T23:39:41.658Z,8.10
2022-11-15T23:42:20.023Z,8.10
2022-11-15T23:44:51.120Z,8.10
2022-11-15T23:47:20.633Z,8.10
2022-11-15T23:49:49.727Z,8.10
2022-11-15T23:52:18.960Z,8.10
2022-11-15T23:54:48.120Z,8.10
2022-11-15T23:57:16.948Z,8.00
2022-11-15T23:59:46.103Z,8.00
